Time;durP1;ratioP1;P1;durP2;ratioP2;P2;SDS_P1;SDS_P2;PMS_P1;PMS_P2;Temp;Humidity;BMP_temperature;BMP_pressure;BME280_temperature;BME280_humidity;BME280_pressure;Samples;Min_cycle;Max_cycle;Signal;HPM_P1;HPM_P2
2021/03/27 00:00:59;;;;;;;5.47;3.58;;;9.40;57.00;;;;;;6207202;23;20006;-44
2021/03/27 00:03:38;;;;;;;6.47;3.80;;;9.40;56.60;;;;;;6207368;23;19996;-43
2021/03/27 00:06:10;;;;;;;4.93;3.53;;;9.50;56.90;;;;;;6208527;23;19993;-43
2021/03/27 00:08:52;;;;;;;6.13;3.35;;;9.50;56.70;;;;;;6198967;23;20004;-44
2021/03/27 00:11:37;;;;;;;5.95;3.55;;;9.60;55.70;;;;;;6201544;23;20020;-43
2021/03/27 00:14:07;;;;;;;6.63;3.50;;;9.50;55.70;;;;;;6206125;23;20067;-47
2021/03/27 00:16:38;;;;;;;6.05;3.30;;;9.50;56.50;;;;;;6204991;23;20085;-43
2021/03/27 00:19:09;;;;;;;7.20;3.30;;;9.40;56.30;;;;;;6206178;23;20005;-43
2021/03/27 00:21:46;;;;;;;5.13;2.90;;;9.50;55.90;;;;;;6208302;23;20005;-43
2021/03/27 00:24:36;;;;;;;7.40;3.00;;;9.60;55.20;;;;;;6211883;23;20233;-45
2021/03/27 00:27:08;;;;;;;5.68;3.20;;;9.70;55.50;;;;;;6226611;23;20015;-44
2021/03/27 00:29:40;;;;;;;6.40;3.38;;;9.80;55.10;;;;;;6200881;23;20008;-45
2021/03/27 00:32:28;;;;;;;6.25;3.20;;;9.70;55.80;;;;;;6202254;23;20004;-44
2021/03/27 00:34:56;;;;;;;6.20;3.22;;;9.80;55.40;;;;;;6188720;23;20005;-44
2021/03/27 00:37:24;;;;;;;7.43;3.47;;;9.80;55.00;;;;;;6204914;23;20000;-45
2021/03/27 00:39:58;;;;;;;4.90;3.10;;;9.90;54.70;;;;;;6192356;23;20029;-43
2021/03/27 00:42:26;;;;;;;4.50;3.00;;;9.80;55.60;;;;;;6182138;23;20284;-44
2021/03/27 00:44:54;;;;;;;5.70;3.20;;;9.80;56.40;;;;;;6212051;23;20001;-45
2021/03/27 00:47:21;;;;;;;6.70;3.40;;;9.90;57.10;;;;;;6201341;23;20303;-43
2021/03/27 00:49:51;;;;;;;4.88;2.92;;;9.80;57.50;;;;;;6229024;23;20009;-43
2021/03/27 00:52:17;;;;;;;4.63;2.67;;;9.80;56.50;;;;;;6231447;23;20007;-43
2021/03/27 00:55:00;;;;;;;5.57;3.20;;;9.90;54.50;;;;;;6208245;23;20004;-44
2021/03/27 00:57:57;;;;;;;5.82;2.83;;;9.90;54.60;;;;;;6232942;23;20056;-43
2021/03/27 01:00:37;;;;;;;13.00;3.05;;;9.90;54.50;;;;;;6145662;23;20008;-47
2021/03/27 01:03:08;;;;;;;4.10;2.50;;;9.80;55.70;;;;;;6211576;23;20023;-43
2021/03/27 01:05:34;;;;;;;4.82;3.03;;;9.80;54.50;;;;;;6200274;23;20287;-43
2021/03/27 01:07:59;;;;;;;6.88;2.88;;;9.80;55.10;;;;;;6180923;23;20059;-43
2021/03/27 01:10:35;;;;;;;6.50;3.33;;;9.90;54.80;;;;;;6149381;23;20024;-43
2021/03/27 01:13:03;;;;;;;9.75;3.20;;;9.90;54.60;;;;;;6211832;23;20009;-45
2021/03/27 01:15:34;;;;;;;6.07;2.58;;;9.90;54.00;;;;;;6173975;23;20004;-45
2021/03/27 01:18:01;;;;;;;5.25;2.58;;;9.90;53.60;;;;;;6211276;23;20059;-45
2021/03/27 01:20:35;;;;;;;4.03;2.97;;;9.90;54.20;;;;;;6200226;23;20013;-43
2021/03/27 01:23:00;;;;;;;6.20;2.83;;;9.90;54.90;;;;;;6202195;23;20015;-44
2021/03/27 01:25:28;;;;;;;4.55;2.92;;;9.90;55.50;;;;;;6230451;23;20024;-44
2021/03/27 01:28:01;;;;;;;5.75;3.20;;;9.80;55.00;;;;;;6206663;23;20000;-44
2021/03/27 01:30:53;;;;;;;6.80;3.20;;;9.90;54.40;;;;;;6207807;23;20004;-43
2021/03/27 01:33:21;;;;;;;5.03;2.90;;;9.90;55.00;;;;;;6235750;23;19997;-43
2021/03/27 01:36:03;;;;;;;5.68;3.28;;;9.90;55.90;;;;;;6186616;23;20000;-43
2021/03/27 01:38:48;;;;;;;5.25;2.83;;;9.90;54.70;;;;;;6226468;23;20020;-43
2021/03/27 01:41:36;;;;;;;5.90;3.30;;;9.90;55.00;;;;;;6227539;23;20347;-44
2021/03/27 01:44:30;;;;;;;5.68;2.72;;;9.90;54.90;;;;;;6202528;23;20007;-44
2021/03/27 01:47:22;;;;;;;6.10;3.35;;;9.80;55.30;;;;;;6204386;23;20008;-43
2021/03/27 01:50:01;;;;;;;5.15;3.35;;;9.90;56.20;;;;;;6158347;23;20009;-46
2021/03/27 01:52:39;;;;;;;8.25;3.28;;;10.00;56.30;;;;;;6140434;23;20139;-43
2021/03/27 01:55:18;;;;;;;5.82;2.85;;;9.90;56.70;;;;;;6231912;23;20056;-43
2021/03/27 01:58:06;;;;;;;5.40;2.80;;;10.00;56.00;;;;;;6206602;23;20001;-46
2021/03/27 02:00:49;;;;;;;6.53;2.92;;;10.00;55.70;;;;;;6198757;23;20012;-46
2021/03/27 02:03:30;;;;;;;5.10;2.85;;;10.00;55.00;;;;;;6211762;23;20011;-43
2021/03/27 02:06:33;;;;;;;8.02;3.00;;;10.00;53.50;;;;;;6199663;23;20005;-45
2021/03/27 02:09:03;;;;;;;7.43;2.80;;;10.00;53.60;;;;;;6188207;23;20020;-43
2021/03/27 02:11:35;;;;;;;5.22;3.10;;;10.00;52.80;;;;;;6225733;23;20108;-43
2021/03/27 02:14:08;;;;;;;5.32;2.80;;;10.10;53.40;;;;;;6227648;23;20027;-43
2021/03/27 02:16:58;;;;;;;5.00;2.95;;;10.00;54.60;;;;;;6204496;23;20303;-43
2021/03/27 02:19:35;;;;;;;5.70;3.13;;;10.00;54.60;;;;;;6193615;23;20013;-44
2021/03/27 02:22:15;;;;;;;4.57;3.03;;;10.10;55.50;;;;;;6210988;23;20165;-43
2021/03/27 02:24:43;;;;;;;5.43;3.20;;;10.00;55.40;;;;;;6206569;23;20244;-43
2021/03/27 02:27:30;;;;;;;4.63;3.20;;;10.00;54.70;;;;;;6210739;23;20004;-43
2021/03/27 02:30:19;;;;;;;6.78;3.35;;;10.10;54.40;;;;;;6225438;23;20200;-49
2021/03/27 02:32:59;;;;;;;5.03;2.97;;;10.00;54.70;;;;;;6173407;23;20021;-45
2021/03/27 02:35:39;;;;;;;5.97;3.38;;;9.90;54.80;;;;;;6223448;23;20004;-43
2021/03/27 02:38:26;;;;;;;5.57;3.50;;;10.00;55.10;;;;;;6180469;23;20076;-43
2021/03/27 02:41:02;;;;;;;6.88;3.40;;;9.80;56.10;;;;;;6192914;23;20028;-45
2021/03/27 02:43:36;;;;;;;7.13;3.38;;;9.90;56.90;;;;;;6204493;23;20016;-44
2021/03/27 02:46:13;;;;;;;6.32;3.88;;;9.90;56.70;;;;;;6206318;23;20039;-43
2021/03/27 02:48:59;;;;;;;7.72;3.95;;;9.80;56.90;;;;;;6208783;23;20001;-44
2021/03/27 02:51:31;;;;;;;5.35;3.50;;;9.90;56.90;;;;;;6209822;23;20023;-43
2021/03/27 02:54:00;;;;;;;5.30;3.67;;;9.90;56.80;;;;;;6210916;23;20060;-43
2021/03/27 02:56:49;;;;;;;8.68;3.33;;;9.80;57.10;;;;;;6225942;23;20024;-43
2021/03/27 02:59:33;;;;;;;6.93;4.00;;;9.80;57.30;;;;;;6202524;23;20009;-43
2021/03/27 03:02:04;;;;;;;6.57;3.60;;;9.60;57.00;;;;;;6227578;23;20263;-46
2021/03/27 03:04:52;;;;;;;7.38;3.90;;;9.60;57.00;;;;;;6198373;23;20339;-45
2021/03/27 03:07:29;;;;;;;7.60;4.05;;;9.70;57.20;;;;;;6177282;23;20008;-46
2021/03/27 03:10:33;;;;;;;7.65;4.00;;;9.60;56.50;;;;;;6205260;23;20028;-45
2021/03/27 03:13:25;;;;;;;7.60;3.90;;;9.60;55.90;;;;;;6183445;23;20074;-45
2021/03/27 03:15:54;;;;;;;5.07;3.67;;;9.40;56.00;;;;;;6209761;23;20012;-44
2021/03/27 03:18:57;;;;;;;6.85;3.88;;;9.30;56.70;;;;;;6207613;23;20291;-44
2021/03/27 03:21:34;;;;;;;5.90;3.58;;;9.30;56.80;;;;;;6233865;23;19985;-44
2021/03/27 03:24:09;;;;;;;7.75;4.10;;;9.40;56.60;;;;;;6210091;23;19992;-43
2021/03/27 03:26:41;;;;;;;6.53;3.90;;;9.50;54.80;;;;;;6199048;23;20067;-44
2021/03/27 03:29:16;;;;;;;5.78;3.70;;;9.40;55.00;;;;;;6225996;23;20068;-43
2021/03/27 03:32:07;;;;;;;6.47;3.83;;;9.50;54.50;;;;;;6201864;23;20267;-48
2021/03/27 03:34:49;;;;;;;8.75;4.13;;;9.50;54.70;;;;;;6202450;23;20008;-44
2021/03/27 03:37:40;;;;;;;9.38;4.07;;;9.60;54.20;;;;;;6203866;23;20008;-43
2021/03/27 03:40:12;;;;;;;6.82;4.10;;;9.50;54.70;;;;;;6161810;23;19997;-44
2021/03/27 03:43:02;;;;;;;8.82;4.30;;;9.60;54.70;;;;;;6228502;23;20047;-44
2021/03/27 03:45:39;;;;;;;7.00;3.78;;;9.60;54.60;;;;;;6179367;23;20001;-44
2021/03/27 03:48:15;;;;;;;6.13;3.63;;;9.60;54.80;;;;;;6210722;23;19997;-43
2021/03/27 03:50:59;;;;;;;6.18;4.00;;;9.60;55.00;;;;;;6225321;23;20224;-44
2021/03/27 03:53:59;;;;;;;6.72;3.85;;;9.60;54.90;;;;;;6199901;23;20060;-45
2021/03/27 03:56:45;;;;;;;6.57;3.38;;;9.60;55.20;;;;;;6204735;23;20047;-46
2021/03/27 03:59:19;;;;;;;7.13;4.22;;;9.70;55.30;;;;;;6200945;23;20051;-43
2021/03/27 04:02:01;;;;;;;7.60;3.90;;;9.50;56.00;;;;;;6159670;23;20005;-44
2021/03/27 04:04:27;;;;;;;;;;;9.60;56.20;;;;;;6188723;23;20047;-44
2021/03/27 04:06:57;;;;;;;6.13;4.00;;;9.60;56.30;;;;;;6230029;23;20135;-45
2021/03/27 04:09:59;;;;;;;8.48;3.95;;;9.70;56.20;;;;;;6189488;23;20363;-44
2021/03/27 04:12:30;;;;;;;;;;;9.70;56.50;;;;;;6157473;23;20005;-43
2021/03/27 04:15:17;;;;;;;6.85;4.07;;;9.60;56.30;;;;;;6166498;23;19893;-45
2021/03/27 04:17:54;;;;;;;6.55;4.20;;;9.70;56.00;;;;;;6165268;23;20032;-44
2021/03/27 04:20:25;;;;;;;12.27;4.43;;;9.70;56.60;;;;;;6164892;23;20005;-43
2021/03/27 04:23:18;;;;;;;9.68;4.53;;;9.60;57.00;;;;;;6166587;23;20016;-44
2021/03/27 04:26:19;;;;;;;10.35;4.43;;;9.70;56.80;;;;;;6156956;23;20006;-43
2021/03/27 04:29:08;;;;;;;9.02;3.92;;;9.60;57.60;;;;;;6166672;23;20002;-43
2021/03/27 04:31:35;;;;;;;6.28;3.92;;;9.60;57.20;;;;;;6168219;23;20013;-44
2021/03/27 04:34:12;;;;;;;7.82;4.10;;;9.70;57.40;;;;;;6171377;23;20001;-43
2021/03/27 04:36:39;;;;;;;6.57;4.20;;;9.60;57.70;;;;;;6172756;23;20064;-46
2021/03/27 04:39:37;;;;;;;9.13;4.18;;;9.70;57.20;;;;;;6176371;23;20005;-44
2021/03/27 04:42:40;;;;;;;7.25;3.95;;;9.70;57.40;;;;;;6133364;23;20044;-43
2021/03/27 04:45:14;;;;;;;7.50;4.35;;;9.60;57.20;;;;;;6161328;23;20069;-44
2021/03/27 04:47:43;;;;;;;7.90;4.38;;;9.60;57.10;;;;;;6164749;23;20013;-43
2021/03/27 04:50:14;;;;;;;9.50;4.10;;;9.60;57.20;;;;;;6166967;23;20020;-44
2021/03/27 04:52:48;;;;;;;7.13;4.22;;;9.50;58.00;;;;;;6169842;23;20055;-46
2021/03/27 04:55:14;;;;;;;7.72;4.30;;;9.60;57.40;;;;;;6170365;23;20002;-46
2021/03/27 04:57:48;;;;;;;9.10;4.30;;;9.60;57.80;;;;;;6173970;23;20001;-43
2021/03/27 05:00:39;;;;;;;12.43;5.80;;;9.70;57.50;;;;;;6176251;23;19997;-45
2021/03/27 05:03:34;;;;;;;7.57;4.18;;;9.70;57.40;;;;;;6165109;23;20010;-43
2021/03/27 05:06:17;;;;;;;6.57;3.83;;;9.70;57.70;;;;;;6165708;23;20013;-44
2021/03/27 05:09:32;;;;;;;10.65;4.15;;;9.70;58.20;;;;;;6174832;23;20021;-44
2021/03/27 05:12:05;;;;;;;9.27;4.40;;;9.70;58.30;;;;;;6141959;23;20015;-43
2021/03/27 05:14:43;;;;;;;7.28;4.25;;;9.70;58.00;;;;;;6149883;23;20008;-44
2021/03/27 05:17:24;;;;;;;7.28;4.97;;;9.80;58.30;;;;;;6201771;23;20012;-43
2021/03/27 05:20:11;;;;;;;8.07;4.88;;;9.90;58.10;;;;;;6206025;23;20012;-46
2021/03/27 05:23:04;;;;;;;10.40;5.28;;;10.00;58.60;;;;;;6230124;23;20009;-43
2021/03/27 05:25:38;;;;;;;7.65;5.38;;;10.00;59.20;;;;;;6230389;23;20012;-43
2021/03/27 05:28:31;;;;;;;8.43;6.13;;;10.00;59.70;;;;;;6222111;23;20012;-43
2021/03/27 05:31:27;;;;;;;8.10;6.03;;;10.10;60.40;;;;;;6188273;23;20009;-46
2021/03/27 05:34:04;;;;;;;8.80;5.80;;;10.10;60.40;;;;;;6225380;23;20011;-45
2021/03/27 05:36:51;;;;;;;10.07;6.28;;;10.20;60.40;;;;;;6207190;23;20007;-43
2021/03/27 05:39:23;;;;;;;10.00;6.43;;;10.20;60.80;;;;;;6235191;23;20004;-43
2021/03/27 05:42:07;;;;;;;10.20;6.13;;;10.20;60.50;;;;;;6211403;23;20003;-44
2021/03/27 05:45:11;;;;;;;9.18;6.05;;;10.30;61.10;;;;;;6226180;23;20288;-44
2021/03/27 05:47:42;;;;;;;9.48;6.32;;;10.30;61.00;;;;;;6225773;23;20005;-48
2021/03/27 05:50:39;;;;;;;11.23;7.03;;;10.30;61.10;;;;;;6227132;23;20212;-43
2021/03/27 05:53:26;;;;;;;12.30;6.82;;;10.40;61.80;;;;;;6219318;23;20004;-43
2021/03/27 05:56:29;;;;;;;10.65;6.32;;;10.30;62.00;;;;;;6198138;23;20180;-43
2021/03/27 05:59:13;;;;;;;9.82;6.28;;;10.40;61.90;;;;;;6227767;23;20000;-43
2021/03/27 06:01:54;;;;;;;10.82;6.90;;;10.40;61.60;;;;;;6203197;23;20008;-45
2021/03/27 06:04:26;;;;;;;9.02;6.32;;;10.50;61.50;;;;;;6204210;23;20007;-43
2021/03/27 06:06:54;;;;;;;;;;;10.50;61.60;;;;;;6225147;23;20343;-44
2021/03/27 06:09:45;;;;;;;9.57;6.28;;;10.50;61.80;;;;;;6194871;23;19912;-46
2021/03/27 06:12:45;;;;;;;14.02;6.95;;;10.50;61.60;;;;;;6210631;23;19995;-46
2021/03/27 06:15:23;;;;;;;15.68;6.40;;;10.50;61.80;;;;;;6187061;23;20001;-43
2021/03/27 06:18:07;;;;;;;9.98;5.75;;;10.50;62.00;;;;;;6199233;23;20046;-44
2021/03/27 06:20:51;;;;;;;11.80;5.45;;;10.50;62.40;;;;;;6225736;23;20291;-43
2021/03/27 06:23:20;;;;;;;8.32;5.13;;;10.50;62.40;;;;;;6226299;23;20350;-43
2021/03/27 06:25:55;;;;;;;9.52;4.47;;;10.50;62.50;;;;;;6228331;23;20203;-46
2021/03/27 06:28:49;;;;;;;8.73;4.32;;;10.60;63.10;;;;;;6204209;23;20008;-43
2021/03/27 06:31:34;;;;;;;6.72;3.75;;;10.60;63.00;;;;;;6204272;23;20009;-45
2021/03/27 06:34:29;;;;;;;6.80;3.85;;;10.60;62.90;;;;;;6205525;23;20012;-46
2021/03/27 06:37:19;;;;;;;7.50;4.32;;;10.70;62.80;;;;;;6201611;23;20009;-45
2021/03/27 06:39:57;;;;;;;8.75;3.65;;;10.70;62.60;;;;;;6183941;23;20008;-43
2021/03/27 06:42:33;;;;;;;5.13;3.10;;;10.70;62.30;;;;;;6234179;23;20003;-44
2021/03/27 06:45:01;;;;;;;5.57;2.90;;;10.70;61.70;;;;;;6237055;23;20299;-42
2021/03/27 06:47:51;;;;;;;7.38;3.00;;;10.60;61.60;;;;;;6226049;23;20012;-43
2021/03/27 06:50:37;;;;;;;6.95;2.38;;;10.70;61.80;;;;;;6200364;23;20319;-43
2021/03/27 06:53:47;;;;;;;3.35;2.25;;;10.70;61.30;;;;;;6178684;23;20056;-44
2021/03/27 06:56:12;;;;;;;4.28;2.53;;;10.70;61.10;;;;;;6125776;23;20012;-43
2021/03/27 06:59:01;;;;;;;10.55;2.67;;;10.70;61.40;;;;;;6198754;23;20020;-45
2021/03/27 07:01:49;;;;;;;3.85;2.42;;;10.70;61.40;;;;;;6172320;23;20033;-44
2021/03/27 07:04:28;;;;;;;4.85;2.60;;;10.70;61.10;;;;;;6212373;23;20016;-45
2021/03/27 07:07:33;;;;;;;6.72;2.60;;;10.70;61.20;;;;;;6205598;23;20295;-45
2021/03/27 07:10:31;;;;;;;4.97;2.78;;;10.80;60.40;;;;;;6196194;23;20035;-44
2021/03/27 07:13:18;;;;;;;4.13;2.70;;;10.80;60.50;;;;;;6160292;23;20008;-44
2021/03/27 07:16:02;;;;;;;4.72;2.50;;;10.80;60.50;;;;;;6232654;23;20012;-45
2021/03/27 07:18:43;;;;;;;6.15;2.55;;;10.80;60.80;;;;;;6233716;23;20180;-42
2021/03/27 07:21:11;;;;;;;;;;;10.90;60.60;;;;;;6237302;23;20279;-44
2021/03/27 07:24:14;;;;;;;4.78;2.88;;;10.80;60.30;;;;;;6198082;23;20117;-43
2021/03/27 07:27:17;;;;;;;3.72;2.42;;;10.90;60.80;;;;;;6224653;23;19996;-46
2021/03/27 07:30:05;;;;;;;4.63;2.50;;;10.80;60.40;;;;;;6225091;23;20318;-44
2021/03/27 07:32:56;;;;;;;4.82;2.40;;;10.80;61.00;;;;;;6202590;23;20040;-45
2021/03/27 07:35:36;;;;;;;4.22;2.55;;;10.80;60.90;;;;;;6172920;23;20020;-44
2021/03/27 07:38:18;;;;;;;4.95;2.22;;;10.80;61.20;;;;;;6201072;23;20109;-43
2021/03/27 07:41:25;;;;;;;4.50;2.30;;;10.80;61.10;;;;;;6209902;23;20009;-44
2021/03/27 07:43:53;;;;;;;5.97;2.55;;;10.80;61.10;;;;;;6093813;23;20352;-43
2021/03/27 07:46:27;;;;;;;4.78;2.53;;;10.80;61.10;;;;;;6109016;23;20003;-45
2021/03/27 07:48:55;;;;;;;6.78;2.40;;;10.70;61.50;;;;;;6134183;23;20047;-44
2021/03/27 07:51:46;;;;;;;7.20;2.30;;;10.70;62.10;;;;;;6194948;23;20354;-45
2021/03/27 07:54:49;;;;;;;3.60;1.10;;;10.70;62.60;;;;;;6214285;23;20007;-47
2021/03/27 07:57:48;;;;;;;1.98;0.90;;;10.60;63.60;;;;;;6225485;23;20000;-45
2021/03/27 08:00:32;;;;;;;1.52;0.80;;;10.30;64.00;;;;;;6199167;23;20015;-44
2021/03/27 08:03:24;;;;;;;1.60;0.80;;;10.30;64.10;;;;;;6198566;23;20116;-43
2021/03/27 08:05:57;;;;;;;2.70;0.80;;;10.30;64.20;;;;;;6182262;23;20013;-44
2021/03/27 08:08:26;;;;;;;2.67;0.80;;;10.10;64.60;;;;;;6199217;23;20012;-43
2021/03/27 08:11:29;;;;;;;2.67;0.90;;;10.20;64.90;;;;;;6229229;23;20036;-44
2021/03/27 08:14:07;;;;;;;3.35;0.90;;;10.10;65.20;;;;;;6225977;23;20009;-44
2021/03/27 08:16:56;;;;;;;2.85;0.68;;;10.00;65.70;;;;;;6225746;23;20012;-44
2021/03/27 08:19:46;;;;;;;1.42;0.80;;;9.90;64.90;;;;;;6199316;23;20042;-43
2021/03/27 08:22:37;;;;;;;4.18;0.77;;;9.80;65.00;;;;;;6195362;23;20056;-42
2021/03/27 08:25:47;;;;;;;1.30;0.60;;;9.70;65.00;;;;;;6180930;23;20005;-44
2021/03/27 08:28:43;;;;;;;1.85;0.63;;;9.60;64.90;;;;;;6100220;23;20007;-48
2021/03/27 08:31:12;;;;;;;2.85;0.75;;;9.50;65.30;;;;;;6232208;23;20016;-43
2021/03/27 08:34:09;;;;;;;2.95;0.65;;;9.40;65.10;;;;;;6207957;23;20324;-44
2021/03/27 08:37:12;;;;;;;2.47;0.70;;;9.30;64.90;;;;;;6207557;23;19997;-43
2021/03/27 08:39:50;;;;;;;7.30;0.90;;;9.30;65.60;;;;;;6234068;23;20059;-42
2021/03/27 08:42:37;;;;;;;3.35;0.80;;;9.10;65.30;;;;;;6237900;23;19996;-46
2021/03/27 08:45:21;;;;;;;3.22;0.75;;;8.90;66.90;;;;;;6226791;23;20067;-43
2021/03/27 08:48:24;;;;;;;1.67;0.68;;;9.10;66.50;;;;;;6200181;23;20183;-44
2021/03/27 08:51:10;;;;;;;5.90;0.85;;;9.00;66.60;;;;;;6226405;23;20047;-44
2021/03/27 08:53:39;;;;;;;3.65;0.68;;;9.10;66.50;;;;;;6226191;23;20005;-45
2021/03/27 08:56:42;;;;;;;1.58;0.68;;;9.00;67.40;;;;;;6205770;23;20012;-42
2021/03/27 08:59:36;;;;;;;1.88;0.70;;;9.10;67.40;;;;;;6221045;23;20000;-43
2021/03/27 09:02:29;;;;;;;1.48;1.10;;;9.20;66.70;;;;;;6179747;23;20318;-43
2021/03/27 09:05:26;;;;;;;1.42;0.70;;;9.10;66.10;;;;;;6229306;23;20005;-43
2021/03/27 09:08:30;;;;;;;2.22;1.58;;;9.10;65.60;;;;;;6204769;23;20303;-43
2021/03/27 09:11:16;;;;;;;2.80;0.82;;;9.10;65.80;;;;;;6181715;23;20308;-47
2021/03/27 09:13:53;;;;;;;2.53;0.85;;;9.10;65.80;;;;;;6199372;23;20013;-45
2021/03/27 09:16:53;;;;;;;1.98;1.00;;;9.20;66.00;;;;;;6188652;23;20027;-48
2021/03/27 09:19:35;;;;;;;3.50;0.95;;;9.40;66.20;;;;;;6217748;23;19993;-46
2021/03/27 09:22:29;;;;;;;4.68;0.88;;;9.40;66.20;;;;;;6175705;23;20308;-43
2021/03/27 09:25:24;;;;;;;2.20;0.90;;;9.50;67.10;;;;;;6184438;23;20353;-44
2021/03/27 09:28:30;;;;;;;2.90;1.00;;;9.60;66.60;;;;;;6232868;23;20299;-43
2021/03/27 09:31:02;;;;;;;3.45;0.95;;;9.60;66.10;;;;;;6187865;23;20010;-43
2021/03/27 09:33:36;;;;;;;1.70;1.05;;;9.60;66.30;;;;;;6234752;23;20004;-44
2021/03/27 09:36:31;;;;;;;2.03;1.20;;;9.60;65.90;;;;;;6212362;23;20000;-42
2021/03/27 09:39:24;;;;;;;1.63;0.90;;;9.80;65.30;;;;;;6199649;23;20004;-43
2021/03/27 09:42:13;;;;;;;2.42;0.90;;;9.80;63.80;;;;;;6200115;23;20027;-43
2021/03/27 09:45:12;;;;;;;1.70;0.90;;;9.90;64.70;;;;;;6225938;23;20009;-45
2021/03/27 09:48:17;;;;;;;3.08;1.98;;;9.90;64.30;;;;;;6225960;23;20060;-42
2021/03/27 09:51:17;;;;;;;3.50;1.30;;;10.00;64.10;;;;;;6076397;23;20021;-44
2021/03/27 09:54:13;;;;;;;2.65;0.90;;;10.20;62.80;;;;;;6198938;23;20015;-42
2021/03/27 09:56:59;;;;;;;1.67;1.00;;;10.20;63.30;;;;;;6225585;23;20051;-45
2021/03/27 09:59:36;;;;;;;2.03;1.15;;;10.30;63.50;;;;;;6174228;23;20055;-43
2021/03/27 10:02:29;;;;;;;2.28;0.98;;;10.50;63.50;;;;;;6179470;23;20005;-43
2021/03/27 10:05:03;;;;;;;2.30;1.02;;;10.60;63.00;;;;;;6192276;23;20014;-42
2021/03/27 10:08:10;;;;;;;2.47;0.70;;;10.80;62.10;;;;;;6214544;23;20013;-43
2021/03/27 10:11:00;;;;;;;1.92;0.90;;;11.00;60.90;;;;;;6206504;23;20021;-44
2021/03/27 10:13:38;;;;;;;4.05;0.80;;;11.10;59.00;;;;;;6229751;23;20008;-39
2021/03/27 10:16:12;;;;;;;1.30;0.70;;;11.40;54.60;;;;;;6231429;23;20179;-47
2021/03/27 10:18:54;;;;;;;1.13;0.57;;;11.80;54.50;;;;;;6208255;23;20008;-45
2021/03/27 10:21:42;;;;;;;1.10;0.52;;;11.80;52.00;;;;;;6210731;23;20003;-45
2021/03/27 10:24:23;;;;;;;4.15;0.70;;;11.80;51.20;;;;;;6214702;23;20188;-47
2021/03/27 10:26:57;;;;;;;2.33;0.70;;;11.80;50.10;;;;;;6201049;23;20013;-48
2021/03/27 10:29:51;;;;;;;1.80;0.70;;;11.70;49.60;;;;;;6199567;23;20015;-46
2021/03/27 10:32:32;;;;;;;1.50;0.90;;;11.70;50.00;;;;;;6204960;23;20008;-44
2021/03/27 10:35:20;;;;;;;1.05;0.60;;;11.50;49.10;;;;;;6227069;23;20012;-46
2021/03/27 10:37:56;;;;;;;1.70;0.70;;;11.40;49.20;;;;;;6187696;23;20300;-46
2021/03/27 10:40:35;;;;;;;1.50;0.65;;;11.40;50.00;;;;;;6162673;23;20063;-48
2021/03/27 10:43:38;;;;;;;4.13;0.90;;;11.40;50.30;;;;;;6197973;23;20000;-46
2021/03/27 10:46:14;;;;;;;2.10;0.70;;;11.40;49.80;;;;;;6231023;23;20001;-46
2021/03/27 10:49:04;;;;;;;3.03;0.80;;;11.30;49.60;;;;;;6207171;23;20004;-46
2021/03/27 10:51:54;;;;;;;3.28;0.80;;;11.20;50.20;;;;;;6231833;23;20000;-48
2021/03/27 10:54:41;;;;;;;2.85;0.98;;;11.00;50.70;;;;;;6204660;23;20019;-45
2021/03/27 10:57:13;;;;;;;1.92;0.80;;;10.90;50.70;;;;;;6237278;23;20074;-48
2021/03/27 10:59:59;;;;;;;3.88;0.90;;;10.90;51.50;;;;;;6224718;23;20067;-48
2021/03/27 11:02:40;;;;;;;4.25;1.00;;;10.90;52.00;;;;;;6203472;23;20032;-45
2021/03/27 11:05:18;;;;;;;1.08;0.70;;;10.80;52.30;;;;;;6202135;23;20246;-46
2021/03/27 11:07:48;;;;;;;1.13;0.77;;;10.70;53.00;;;;;;6206183;23;20008;-45
2021/03/27 11:10:30;;;;;;;3.10;1.33;;;10.70;53.70;;;;;;6231023;23;20028;-45
2021/03/27 11:13:33;;;;;;;1.08;0.80;;;10.70;53.90;;;;;;6206809;23;20011;-48
2021/03/27 11:16:23;;;;;;;2.65;1.05;;;10.70;53.80;;;;;;6196880;23;20075;-46
2021/03/27 11:19:19;;;;;;;1.40;0.90;;;10.70;54.70;;;;;;6208521;23;20016;-46
2021/03/27 11:22:07;;;;;;;3.15;0.90;;;10.60;55.50;;;;;;6208720;23;20004;-44
2021/03/27 11:24:42;;;;;;;1.60;0.73;;;10.50;57.30;;;;;;6209475;23;19999;-44
2021/03/27 11:27:27;;;;;;;4.05;1.00;;;10.50;58.10;;;;;;6239073;23;20275;-49
2021/03/27 11:30:04;;;;;;;2.00;1.00;;;10.50;58.70;;;;;;6201457;23;20040;-48
2021/03/27 11:32:51;;;;;;;2.58;0.98;;;10.40;59.60;;;;;;6228438;23;20054;-45
2021/03/27 11:35:34;;;;;;;1.23;0.90;;;10.30;59.80;;;;;;6176880;23;20009;-48
2021/03/27 11:38:04;;;;;;;2.65;0.80;;;10.20;60.50;;;;;;6173217;23;20005;-46
2021/03/27 11:41:03;;;;;;;3.60;1.00;;;10.20;60.50;;;;;;6174951;23;20009;-49
2021/03/27 11:43:46;;;;;;;1.52;1.00;;;10.30;60.00;;;;;;6181341;23;20068;-44
2021/03/27 11:46:22;;;;;;;2.08;1.10;;;10.30;60.20;;;;;;6215295;23;20051;-45
2021/03/27 11:49:04;;;;;;;1.65;1.05;;;10.20;59.70;;;;;;6200828;23;20008;-48
2021/03/27 11:51:35;;;;;;;2.58;0.90;;;10.20;59.40;;;;;;6207316;23;19997;-47
2021/03/27 11:54:14;;;;;;;3.92;0.98;;;10.20;58.70;;;;;;6238334;23;19996;-46
2021/03/27 11:56:42;;;;;;;3.28;1.10;;;10.10;58.40;;;;;;6200514;23;20199;-47
2021/03/27 11:59:42;;;;;;;2.20;0.95;;;10.10;58.00;;;;;;6226350;23;20317;-47
2021/03/27 12:02:19;;;;;;;2.55;1.40;;;10.00;58.60;;;;;;6192146;23;20001;-46
2021/03/27 12:05:11;;;;;;;3.80;1.10;;;10.10;58.60;;;;;;6203475;23;20005;-47
2021/03/27 12:08:04;;;;;;;4.05;1.08;;;10.10;58.50;;;;;;6207561;23;20016;-44
2021/03/27 12:10:35;;;;;;;2.28;1.05;;;10.10;58.40;;;;;;6204525;23;20211;-48
2021/03/27 12:13:32;;;;;;;4.70;1.02;;;10.10;58.50;;;;;;6232635;23;20005;-46
2021/03/27 12:16:43;;;;;;;1.50;0.90;;;10.10;57.70;;;;;;6206230;23;20024;-45
2021/03/27 12:19:27;;;;;;;3.57;1.10;;;10.10;58.60;;;;;;6223355;23;19997;-46
2021/03/27 12:22:23;;;;;;;2.58;1.10;;;10.10;57.70;;;;;;6208801;23;20270;-48
2021/03/27 12:25:11;;;;;;;2.58;1.02;;;10.20;57.10;;;;;;6227212;23;20001;-45
2021/03/27 12:27:43;;;;;;;3.70;0.93;;;10.10;56.20;;;;;;6182320;23;20012;-48
2021/03/27 12:30:32;;;;;;;2.88;1.85;;;10.20;56.90;;;;;;6237653;23;20080;-47
2021/03/27 12:33:09;;;;;;;3.28;0.95;;;10.40;57.10;;;;;;6226421;23;20008;-46
2021/03/27 12:35:46;;;;;;;3.55;1.00;;;10.60;57.30;;;;;;6226488;23;20169;-48
2021/03/27 12:38:27;;;;;;;2.25;1.00;;;10.60;57.40;;;;;;6177488;23;20005;-46
2021/03/27 12:41:06;;;;;;;6.50;1.33;;;10.80;56.90;;;;;;6215597;23;20024;-48
2021/03/27 12:43:33;;;;;;;2.58;1.00;;;10.80;56.90;;;;;;6206199;23;20263;-47
2021/03/27 12:46:17;;;;;;;3.25;0.98;;;10.90;56.40;;;;;;6206025;23;20008;-46
2021/03/27 12:49:01;;;;;;;3.85;1.13;;;11.10;57.10;;;;;;6208865;23;20027;-48
2021/03/27 12:51:42;;;;;;;3.42;1.10;;;11.30;54.90;;;;;;6234685;23;20176;-47
2021/03/27 12:54:21;;;;;;;6.10;1.90;;;11.20;54.20;;;;;;6211405;23;19996;-45
2021/03/27 12:56:59;;;;;;;3.75;1.15;;;11.10;53.40;;;;;;6202373;23;20004;-45
2021/03/27 12:59:33;;;;;;;4.82;1.55;;;11.10;53.70;;;;;;6199981;23;20005;-46
2021/03/27 13:02:12;;;;;;;3.38;1.20;;;11.00;52.50;;;;;;6201722;23;20135;-48
2021/03/27 13:04:45;;;;;;;4.00;0.98;;;11.10;53.20;;;;;;6203177;23;20005;-48
2021/03/27 13:07:23;;;;;;;4.38;1.48;;;11.00;51.90;;;;;;6193956;23;20005;-47
2021/03/27 13:10:12;;;;;;;1.95;0.90;;;11.00;52.70;;;;;;6209239;23;20024;-46
2021/03/27 13:12:40;;;;;;;3.63;0.98;;;11.20;51.90;;;;;;6207928;23;20268;-45
2021/03/27 13:15:20;;;;;;;4.13;1.45;;;11.20;52.30;;;;;;6210979;23;19997;-49
2021/03/27 13:18:20;;;;;;;4.75;1.08;;;11.20;50.80;;;;;;6199404;23;20290;-47
2021/03/27 13:20:50;;;;;;;3.13;1.08;;;11.20;48.90;;;;;;6196130;23;20009;-48
2021/03/27 13:23:19;;;;;;;1.77;0.93;;;11.20;49.20;;;;;;6198904;23;20302;-47
2021/03/27 13:25:59;;;;;;;6.50;1.10;;;11.30;48.70;;;;;;6184278;23;20005;-46
2021/03/27 13:28:39;;;;;;;3.90;1.02;;;11.30;47.70;;;;;;6174262;23;20001;-46
2021/03/27 13:31:07;;;;;;;2.78;0.93;;;11.30;46.80;;;;;;6169947;23;20047;-47
2021/03/27 13:33:40;;;;;;;3.50;1.00;;;11.30;47.20;;;;;;6206926;23;20172;-45
2021/03/27 13:36:27;;;;;;;4.60;1.50;;;11.30;46.80;;;;;;6212329;23;20004;-50
2021/03/27 13:39:02;;;;;;;4.65;1.85;;;11.20;47.10;;;;;;6152028;23;20015;-48
2021/03/27 13:41:36;;;;;;;5.10;1.13;;;11.20;48.10;;;;;;6175138;23;20200;-46
2021/03/27 13:44:24;;;;;;;6.25;1.55;;;11.20;47.50;;;;;;6227770;23;20028;-45
2021/03/27 13:47:11;;;;;;;5.38;1.42;;;11.20;48.90;;;;;;6228553;23;20009;-46
2021/03/27 13:49:45;;;;;;;3.13;1.10;;;11.20;48.50;;;;;;6229751;23;20009;-46
2021/03/27 13:52:27;;;;;;;5.25;1.30;;;11.30;47.60;;;;;;6206338;23;20004;-45
2021/03/27 13:54:59;;;;;;;7.28;1.40;;;11.40;47.80;;;;;;6206438;23;20028;-46
2021/03/27 13:57:26;;;;;;;3.63;1.20;;;11.50;48.00;;;;;;6208072;23;20370;-45
2021/03/27 14:00:10;;;;;;;4.00;1.80;;;11.40;46.10;;;;;;6210921;23;19997;-45
2021/03/27 14:02:39;;;;;;;5.38;1.02;;;11.60;48.00;;;;;;6201230;23;20296;-47
2021/03/27 14:05:07;;;;;;;4.03;1.25;;;11.70;47.30;;;;;;6204334;23;20013;-49
2021/03/27 14:07:41;;;;;;;4.60;0.93;;;11.70;46.60;;;;;;6215094;23;20051;-46
2021/03/27 14:10:13;;;;;;;2.00;0.95;;;11.90;46.20;;;;;;6204785;23;20020;-47
2021/03/27 14:12:44;;;;;;;3.95;1.02;;;12.00;46.20;;;;;;6206599;23;20027;-50